sensor_id;sensor_type;location;lat;lon;timestamp;pressure;altitude;pressure_sealevel;temperature;humidity
57885;BME280;43703;51.060;-0.086;2023-04-03T00:01:51;101574.70;;;1.75;63.46
57885;BME280;43703;51.060;-0.086;2023-04-03T00:04:16;101575.23;;;2.15;63.39
57885;BME280;43703;51.060;-0.086;2023-04-03T00:06:41;101575.01;;;1.64;63.59
57885;BME280;43703;51.060;-0.086;2023-04-03T00:09:06;101576.29;;;1.51;63.57
57885;BME280;43703;51.060;-0.086;2023-04-03T00:11:31;101571.65;;;1.41;63.96
57885;BME280;43703;51.060;-0.086;2023-04-03T00:13:57;101568.49;;;1.56;63.81
57885;BME280;43703;51.060;-0.086;2023-04-03T00:16:22;101569.93;;;1.66;63.05
57885;BME280;43703;51.060;-0.086;2023-04-03T00:18:47;101570.81;;;1.55;63.90
57885;BME280;43703;51.060;-0.086;2023-04-03T00:21:14;101569.56;;;1.83;63.84
57885;BME280;43703;51.060;-0.086;2023-04-03T00:23:39;101565.34;;;1.70;63.88
57885;BME280;43703;51.060;-0.086;2023-04-03T00:26:04;101564.17;;;1.81;64.40
57885;BME280;43703;51.060;-0.086;2023-04-03T00:28:29;101560.15;;;1.91;64.05
57885;BME280;43703;51.060;-0.086;2023-04-03T00:30:54;101563.32;;;1.65;63.76
57885;BME280;43703;51.060;-0.086;2023-04-03T00:33:19;101563.03;;;1.58;64.01
57885;BME280;43703;51.060;-0.086;2023-04-03T00:35:45;101556.25;;;1.98;64.23
57885;BME280;43703;51.060;-0.086;2023-04-03T00:38:10;101553.19;;;1.83;64.18
57885;BME280;43703;51.060;-0.086;2023-04-03T00:40:37;101549.71;;;1.67;64.30
57885;BME280;43703;51.060;-0.086;2023-04-03T00:43:00;101553.58;;;1.52;64.70
57885;BME280;43703;51.060;-0.086;2023-04-03T00:45:32;101553.83;;;1.96;64.09
57885;BME280;43703;51.060;-0.086;2023-04-03T00:47:51;101553.60;;;1.79;64.12
57885;BME280;43703;51.060;-0.086;2023-04-03T00:50:16;101552.56;;;1.97;64.56
57885;BME280;43703;51.060;-0.086;2023-04-03T00:52:41;101554.43;;;1.47;64.65
57885;BME280;43703;51.060;-0.086;2023-04-03T00:55:10;101555.61;;;2.04;63.94
57885;BME280;43703;51.060;-0.086;2023-04-03T00:57:32;101552.58;;;1.63;63.95
57885;BME280;43703;51.060;-0.086;2023-04-03T01:00:00;101550.76;;;1.64;64.26
57885;BME280;43703;51.060;-0.086;2023-04-03T01:02:22;101551.50;;;1.36;64.66
57885;BME280;43703;51.060;-0.086;2023-04-03T01:04:47;101550.54;;;1.03;64.25
57885;BME280;43703;51.060;-0.086;2023-04-03T01:07:15;101549.01;;;1.26;64.22
57885;BME280;43703;51.060;-0.086;2023-04-03T01:09:38;101551.52;;;1.30;64.98
57885;BME280;43703;51.060;-0.086;2023-04-03T01:14:28;101551.28;;;1.11;65.03
57885;BME280;43703;51.060;-0.086;2023-04-03T01:16:53;101555.15;;;1.43;65.55
57885;BME280;43703;51.060;-0.086;2023-04-03T01:19:19;101555.00;;;1.32;65.23
57885;BME280;43703;51.060;-0.086;2023-04-03T01:26:34;101555.27;;;0.70;66.39
57885;BME280;43703;51.060;-0.086;2023-04-03T01:29:02;101552.29;;;1.08;65.57
57885;BME280;43703;51.060;-0.086;2023-04-03T01:31:27;101549.65;;;1.05;64.66
57885;BME280;43703;51.060;-0.086;2023-04-03T01:33:50;101548.39;;;1.06;65.04
57885;BME280;43703;51.060;-0.086;2023-04-03T01:36:16;101546.35;;;1.41;64.75
57885;BME280;43703;51.060;-0.086;2023-04-03T01:38:39;101546.51;;;1.42;64.38
57885;BME280;43703;51.060;-0.086;2023-04-03T01:41:05;101544.04;;;1.29;64.69
57885;BME280;43703;51.060;-0.086;2023-04-03T01:43:29;101541.46;;;1.28;65.09
57885;BME280;43703;51.060;-0.086;2023-04-03T01:45:55;101539.21;;;1.25;64.99
57885;BME280;43703;51.060;-0.086;2023-04-03T01:48:20;101534.71;;;1.56;64.64
57885;BME280;43703;51.060;-0.086;2023-04-03T01:50:45;101530.13;;;1.19;64.44
57885;BME280;43703;51.060;-0.086;2023-04-03T01:53:10;101531.20;;;1.63;65.10
57885;BME280;43703;51.060;-0.086;2023-04-03T01:55:35;101530.74;;;1.22;64.98
57885;BME280;43703;51.060;-0.086;2023-04-03T01:58:00;101530.61;;;1.01;65.08
57885;BME280;43703;51.060;-0.086;2023-04-03T02:00:26;101531.11;;;1.38;65.06
57885;BME280;43703;51.060;-0.086;2023-04-03T02:02:51;101530.82;;;0.90;64.77
57885;BME280;43703;51.060;-0.086;2023-04-03T02:05:16;101530.32;;;1.30;65.17
57885;BME280;43703;51.060;-0.086;2023-04-03T02:07:41;101534.12;;;1.18;64.88
57885;BME280;43703;51.060;-0.086;2023-04-03T02:10:07;101533.19;;;1.15;64.55
57885;BME280;43703;51.060;-0.086;2023-04-03T02:12:32;101532.34;;;1.67;64.40
57885;BME280;43703;51.060;-0.086;2023-04-03T02:14:57;101534.40;;;1.05;64.63
57885;BME280;43703;51.060;-0.086;2023-04-03T02:17:22;101538.26;;;1.17;64.57
57885;BME280;43703;51.060;-0.086;2023-04-03T02:19:47;101540.66;;;0.94;64.67
57885;BME280;43703;51.060;-0.086;2023-04-03T02:22:12;101536.64;;;1.31;64.48
57885;BME280;43703;51.060;-0.086;2023-04-03T02:24:37;101530.83;;;1.27;64.75
57885;BME280;43703;51.060;-0.086;2023-04-03T02:27:04;101531.11;;;1.00;64.67
57885;BME280;43703;51.060;-0.086;2023-04-03T02:29:27;101528.69;;;1.47;64.60
57885;BME280;43703;51.060;-0.086;2023-04-03T02:31:53;101530.16;;;0.61;64.59
57885;BME280;43703;51.060;-0.086;2023-04-03T02:34:18;101526.92;;;1.01;65.06
57885;BME280;43703;51.060;-0.086;2023-04-03T02:36:43;101527.20;;;1.12;64.85
57885;BME280;43703;51.060;-0.086;2023-04-03T02:39:08;101526.36;;;0.90;64.65
57885;BME280;43703;51.060;-0.086;2023-04-03T02:41:33;101523.34;;;1.37;64.94
57885;BME280;43703;51.060;-0.086;2023-04-03T02:43:59;101518.75;;;0.64;64.71
57885;BME280;43703;51.060;-0.086;2023-04-03T02:46:24;101519.04;;;0.48;64.90
57885;BME280;43703;51.060;-0.086;2023-04-03T02:48:49;101518.42;;;1.28;64.69
57885;BME280;43703;51.060;-0.086;2023-04-03T02:51:15;101517.85;;;0.84;65.16
57885;BME280;43703;51.060;-0.086;2023-04-03T02:53:39;101519.45;;;1.19;65.14
57885;BME280;43703;51.060;-0.086;2023-04-03T02:56:04;101516.15;;;1.07;65.27
57885;BME280;43703;51.060;-0.086;2023-04-03T02:58:30;101520.12;;;0.51;65.45
57885;BME280;43703;51.060;-0.086;2023-04-03T03:00:55;101517.68;;;0.88;64.92
57885;BME280;43703;51.060;-0.086;2023-04-03T03:03:21;101513.08;;;1.00;65.78
57885;BME280;43703;51.060;-0.086;2023-04-03T03:05:46;101512.77;;;0.43;66.25
57885;BME280;43703;51.060;-0.086;2023-04-03T03:08:11;101505.15;;;0.61;65.71
57885;BME280;43703;51.060;-0.086;2023-04-03T03:10:36;101502.22;;;0.76;65.75
57885;BME280;43703;51.060;-0.086;2023-04-03T03:13:02;101502.50;;;1.02;65.56
57885;BME280;43703;51.060;-0.086;2023-04-03T03:15:27;101500.78;;;1.06;65.84
57885;BME280;43703;51.060;-0.086;2023-04-03T03:17:52;101501.82;;;1.46;65.54
57885;BME280;43703;51.060;-0.086;2023-04-03T03:20:17;101498.60;;;0.65;65.70
57885;BME280;43703;51.060;-0.086;2023-04-03T03:22:42;101499.64;;;0.80;65.93
57885;BME280;43703;51.060;-0.086;2023-04-03T03:25:08;101503.49;;;0.92;65.78
57885;BME280;43703;51.060;-0.086;2023-04-03T03:27:32;101499.82;;;1.36;65.70
57885;BME280;43703;51.060;-0.086;2023-04-03T03:29:57;101500.74;;;1.01;65.36
57885;BME280;43703;51.060;-0.086;2023-04-03T03:32:23;101501.18;;;1.27;65.01
57885;BME280;43703;51.060;-0.086;2023-04-03T03:34:48;101497.63;;;0.96;65.65
57885;BME280;43703;51.060;-0.086;2023-04-03T03:37:13;101497.12;;;1.14;64.86
57885;BME280;43703;51.060;-0.086;2023-04-03T03:39:38;101495.01;;;1.05;65.60
57885;BME280;43703;51.060;-0.086;2023-04-03T03:42:04;101501.01;;;1.17;65.15
57885;BME280;43703;51.060;-0.086;2023-04-03T03:44:29;101499.62;;;1.34;65.00
57885;BME280;43703;51.060;-0.086;2023-04-03T03:46:54;101497.67;;;0.89;65.59
57885;BME280;43703;51.060;-0.086;2023-04-03T03:49:19;101496.35;;;1.14;65.61
57885;BME280;43703;51.060;-0.086;2023-04-03T03:51:44;101496.01;;;0.88;65.94
57885;BME280;43703;51.060;-0.086;2023-04-03T03:54:09;101498.50;;;1.24;65.63
57885;BME280;43703;51.060;-0.086;2023-04-03T03:56:34;101495.24;;;0.78;65.77
57885;BME280;43703;51.060;-0.086;2023-04-03T03:58:59;101497.53;;;1.31;65.36
57885;BME280;43703;51.060;-0.086;2023-04-03T04:01:25;101496.08;;;1.56;65.03
57885;BME280;43703;51.060;-0.086;2023-04-03T04:03:50;101493.99;;;1.53;64.52
57885;BME280;43703;51.060;-0.086;2023-04-03T04:06:15;101490.66;;;1.39;65.27
57885;BME280;43703;51.060;-0.086;2023-04-03T04:08:40;101490.94;;;1.03;65.42
57885;BME280;43703;51.060;-0.086;2023-04-03T04:11:05;101491.16;;;1.03;65.66
57885;BME280;43703;51.060;-0.086;2023-04-03T04:13:30;101492.60;;;1.02;66.09
57885;BME280;43703;51.060;-0.086;2023-04-03T04:15:55;101490.48;;;0.96;65.95
57885;BME280;43703;51.060;-0.086;2023-04-03T04:18:20;101490.59;;;1.07;66.29
57885;BME280;43703;51.060;-0.086;2023-04-03T04:20:45;101488.09;;;0.89;66.16
57885;BME280;43703;51.060;-0.086;2023-04-03T04:23:10;101487.21;;;0.76;66.11
57885;BME280;43703;51.060;-0.086;2023-04-03T04:25:36;101487.39;;;1.07;66.28
57885;BME280;43703;51.060;-0.086;2023-04-03T04:28:01;101489.14;;;1.34;65.52
57885;BME280;43703;51.060;-0.086;2023-04-03T04:30:26;101490.89;;;1.14;65.75
57885;BME280;43703;51.060;-0.086;2023-04-03T04:32:51;101491.92;;;1.04;66.03
57885;BME280;43703;51.060;-0.086;2023-04-03T04:35:16;101495.83;;;1.31;66.51
57885;BME280;43703;51.060;-0.086;2023-04-03T04:37:42;101492.92;;;0.99;66.32
57885;BME280;43703;51.060;-0.086;2023-04-03T04:40:07;101492.66;;;0.98;66.76
57885;BME280;43703;51.060;-0.086;2023-04-03T04:42:31;101492.33;;;0.63;65.97
57885;BME280;43703;51.060;-0.086;2023-04-03T04:44:56;101491.00;;;1.13;65.54
57885;BME280;43703;51.060;-0.086;2023-04-03T04:47:21;101490.19;;;0.66;66.70
57885;BME280;43703;51.060;-0.086;2023-04-03T04:49:47;101488.53;;;0.85;66.73
57885;BME280;43703;51.060;-0.086;2023-04-03T04:52:12;101492.30;;;1.18;66.77
57885;BME280;43703;51.060;-0.086;2023-04-03T04:54:37;101490.78;;;1.02;65.97
57885;BME280;43703;51.060;-0.086;2023-04-03T04:57:02;101486.48;;;1.00;67.08
57885;BME280;43703;51.060;-0.086;2023-04-03T04:59:27;101489.11;;;0.94;66.62
57885;BME280;43703;51.060;-0.086;2023-04-03T05:01:53;101484.96;;;0.60;67.12
57885;BME280;43703;51.060;-0.086;2023-04-03T05:04:18;101484.44;;;0.38;66.75
57885;BME280;43703;51.060;-0.086;2023-04-03T05:06:44;101485.23;;;0.68;66.43
57885;BME280;43703;51.060;-0.086;2023-04-03T05:09:09;101484.43;;;0.77;67.33
57885;BME280;43703;51.060;-0.086;2023-04-03T05:11:34;101485.12;;;0.97;67.09
57885;BME280;43703;51.060;-0.086;2023-04-03T05:13:59;101487.61;;;0.37;68.36
57885;BME280;43703;51.060;-0.086;2023-04-03T05:16:24;101487.16;;;0.33;68.50
57885;BME280;43703;51.060;-0.086;2023-04-03T05:18:49;101490.01;;;0.33;68.00
57885;BME280;43703;51.060;-0.086;2023-04-03T05:21:14;101489.27;;;1.20;67.79
57885;BME280;43703;51.060;-0.086;2023-04-03T05:23:40;101487.18;;;1.78;67.12
57885;BME280;43703;51.060;-0.086;2023-04-03T05:26:05;101489.15;;;0.97;67.04
57885;BME280;43703;51.060;-0.086;2023-04-03T05:28:31;101489.53;;;1.47;66.66
57885;BME280;43703;51.060;-0.086;2023-04-03T05:30:56;101491.66;;;0.86;67.34
57885;BME280;43703;51.060;-0.086;2023-04-03T05:33:26;101494.80;;;1.27;68.14
57885;BME280;43703;51.060;-0.086;2023-04-03T05:35:45;101493.97;;;1.14;68.25
57885;BME280;43703;51.060;-0.086;2023-04-03T05:38:11;101494.84;;;1.04;67.63
57885;BME280;43703;51.060;-0.086;2023-04-03T05:40:36;101496.17;;;0.79;67.36
57885;BME280;43703;51.060;-0.086;2023-04-03T05:43:01;101495.49;;;1.08;67.56
57885;BME280;43703;51.060;-0.086;2023-04-03T05:45:26;101496.09;;;1.10;67.32
57885;BME280;43703;51.060;-0.086;2023-04-03T05:47:51;101496.96;;;1.23;67.11
57885;BME280;43703;51.060;-0.086;2023-04-03T05:50:16;101499.11;;;0.75;68.27
57885;BME280;43703;51.060;-0.086;2023-04-03T05:52:45;101500.06;;;1.10;68.26
57885;BME280;43703;51.060;-0.086;2023-04-03T05:55:07;101498.91;;;1.39;67.86
57885;BME280;43703;51.060;-0.086;2023-04-03T05:57:31;101497.34;;;1.65;67.27
57885;BME280;43703;51.060;-0.086;2023-04-03T05:59:56;101498.20;;;1.86;67.37
57885;BME280;43703;51.060;-0.086;2023-04-03T06:02:24;101500.91;;;2.20;67.24
57885;BME280;43703;51.060;-0.086;2023-04-03T06:04:47;101504.61;;;1.91;66.75
57885;BME280;43703;51.060;-0.086;2023-04-03T06:07:14;101506.56;;;2.08;67.37
57885;BME280;43703;51.060;-0.086;2023-04-03T06:09:37;101506.48;;;1.78;67.17
57885;BME280;43703;51.060;-0.086;2023-04-03T06:12:02;101510.13;;;2.27;67.92
57885;BME280;43703;51.060;-0.086;2023-04-03T06:14:27;101513.48;;;1.49;67.54
57885;BME280;43703;51.060;-0.086;2023-04-03T06:16:53;101513.13;;;1.50;67.02
57885;BME280;43703;51.060;-0.086;2023-04-03T06:19:17;101515.67;;;1.40;67.33
57885;BME280;43703;51.060;-0.086;2023-04-03T06:21:42;101516.24;;;1.76;67.49
57885;BME280;43703;51.060;-0.086;2023-04-03T06:24:09;101516.30;;;2.53;66.22
57885;BME280;43703;51.060;-0.086;2023-04-03T06:26:33;101511.35;;;2.29;66.89
57885;BME280;43703;51.060;-0.086;2023-04-03T06:28:59;101514.57;;;2.19;66.97
57885;BME280;43703;51.060;-0.086;2023-04-03T06:31:23;101512.27;;;2.66;67.07
57885;BME280;43703;51.060;-0.086;2023-04-03T06:33:48;101513.17;;;1.22;68.80
57885;BME280;43703;51.060;-0.086;2023-04-03T06:36:14;101513.63;;;1.97;68.69
57885;BME280;43703;51.060;-0.086;2023-04-03T06:38:39;101514.05;;;2.59;67.52
57885;BME280;43703;51.060;-0.086;2023-04-03T06:41:05;101514.78;;;2.57;68.63
57885;BME280;43703;51.060;-0.086;2023-04-03T06:43:30;101519.02;;;2.17;69.14
57885;BME280;43703;51.060;-0.086;2023-04-03T06:45:55;101522.44;;;2.82;67.88
57885;BME280;43703;51.060;-0.086;2023-04-03T06:48:20;101523.23;;;2.48;68.35
57885;BME280;43703;51.060;-0.086;2023-04-03T06:50:46;101526.29;;;2.96;66.97
57885;BME280;43703;51.060;-0.086;2023-04-03T06:53:10;101528.81;;;3.67;66.93
57885;BME280;43703;51.060;-0.086;2023-04-03T06:55:36;101529.00;;;3.37;66.26
57885;BME280;43703;51.060;-0.086;2023-04-03T06:58:00;101528.32;;;3.78;66.76
57885;BME280;43703;51.060;-0.086;2023-04-03T07:00:26;101528.19;;;3.24;65.94
57885;BME280;43703;51.060;-0.086;2023-04-03T07:02:51;101529.97;;;2.64;65.76
57885;BME280;43703;51.060;-0.086;2023-04-03T07:05:17;101531.37;;;3.54;65.73
57885;BME280;43703;51.060;-0.086;2023-04-03T07:07:41;101532.31;;;3.43;65.25
57885;BME280;43703;51.060;-0.086;2023-04-03T07:10:08;101536.31;;;2.94;66.06
57885;BME280;43703;51.060;-0.086;2023-04-03T07:12:32;101533.18;;;2.53;66.70
57885;BME280;43703;51.060;-0.086;2023-04-03T07:14:57;101537.13;;;2.91;67.88
57885;BME280;43703;51.060;-0.086;2023-04-03T07:17:23;101533.26;;;2.50;70.50
57885;BME280;43703;51.060;-0.086;2023-04-03T07:19:48;101534.22;;;3.51;69.15
57885;BME280;43703;51.060;-0.086;2023-04-03T07:22:13;101534.47;;;3.24;68.89
57885;BME280;43703;51.060;-0.086;2023-04-03T07:24:38;101531.56;;;3.79;68.16
57885;BME280;43703;51.060;-0.086;2023-04-03T07:27:04;101531.78;;;3.87;67.76
57885;BME280;43703;51.060;-0.086;2023-04-03T07:29:29;101538.17;;;3.60;67.71
57885;BME280;43703;51.060;-0.086;2023-04-03T07:31:54;101531.03;;;3.72;67.26
57885;BME280;43703;51.060;-0.086;2023-04-03T07:34:19;101533.76;;;3.52;66.84
57885;BME280;43703;51.060;-0.086;2023-04-03T07:36:44;101535.44;;;3.17;68.79
57885;BME280;43703;51.060;-0.086;2023-04-03T07:39:10;101534.58;;;3.65;69.08
57885;BME280;43703;51.060;-0.086;2023-04-03T07:41:35;101539.19;;;3.62;67.99
57885;BME280;43703;51.060;-0.086;2023-04-03T07:44:00;101537.16;;;3.26;69.46
57885;BME280;43703;51.060;-0.086;2023-04-03T07:46:25;101541.88;;;3.64;68.64
57885;BME280;43703;51.060;-0.086;2023-04-03T07:48:50;101543.73;;;3.83;68.29
57885;BME280;43703;51.060;-0.086;2023-04-03T07:51:15;101542.96;;;4.42;67.10
57885;BME280;43703;51.060;-0.086;2023-04-03T07:53:41;101545.23;;;3.86;66.12
57885;BME280;43703;51.060;-0.086;2023-04-03T07:56:07;101542.87;;;3.26;69.23
57885;BME280;43703;51.060;-0.086;2023-04-03T07:58:32;101543.67;;;3.90;69.79
57885;BME280;43703;51.060;-0.086;2023-04-03T08:00:57;101544.79;;;5.59;68.26
57885;BME280;43703;51.060;-0.086;2023-04-03T08:03:23;101543.15;;;5.46;64.60
57885;BME280;43703;51.060;-0.086;2023-04-03T08:05:49;101543.06;;;5.49;64.47
57885;BME280;43703;51.060;-0.086;2023-04-03T08:08:15;101544.93;;;5.09;62.98
57885;BME280;43703;51.060;-0.086;2023-04-03T08:10:39;101542.60;;;6.83;63.62
57885;BME280;43703;51.060;-0.086;2023-04-03T08:13:06;101546.46;;;6.68;60.79
57885;BME280;43703;51.060;-0.086;2023-04-03T08:15:30;101548.90;;;8.09;67.93
57885;BME280;43703;51.060;-0.086;2023-04-03T08:17:55;101548.74;;;6.44;59.84
57885;BME280;43703;51.060;-0.086;2023-04-03T08:20:21;101547.93;;;7.89;62.44
57885;BME280;43703;51.060;-0.086;2023-04-03T08:22:46;101551.45;;;7.77;55.23
57885;BME280;43703;51.060;-0.086;2023-04-03T08:25:12;101551.43;;;6.21;59.03
57885;BME280;43703;51.060;-0.086;2023-04-03T08:27:37;101552.29;;;7.44;58.11
57885;BME280;43703;51.060;-0.086;2023-04-03T08:30:04;101545.51;;;10.23;55.94
57885;BME280;43703;51.060;-0.086;2023-04-03T08:32:28;101550.39;;;12.01;56.30
57885;BME280;43703;51.060;-0.086;2023-04-03T08:34:53;101550.86;;;10.62;53.28
57885;BME280;43703;51.060;-0.086;2023-04-03T08:37:19;101547.86;;;11.89;55.68
57885;BME280;43703;51.060;-0.086;2023-04-03T08:39:45;101549.85;;;10.35;49.31
57885;BME280;43703;51.060;-0.086;2023-04-03T08:42:17;101552.24;;;10.87;49.79
57885;BME280;43703;51.060;-0.086;2023-04-03T08:44:39;101549.61;;;11.43;50.49
57885;BME280;43703;51.060;-0.086;2023-04-03T08:47:11;101545.28;;;14.49;47.21
57885;BME280;43703;51.060;-0.086;2023-04-03T08:49:31;101541.85;;;14.90;43.99
57885;BME280;43703;51.060;-0.086;2023-04-03T08:51:54;101549.46;;;13.74;45.58
57885;BME280;43703;51.060;-0.086;2023-04-03T08:54:27;101549.87;;;13.95;42.21
57885;BME280;43703;51.060;-0.086;2023-04-03T08:56:45;101549.59;;;13.49;43.08
57885;BME280;43703;51.060;-0.086;2023-04-03T08:59:19;101554.51;;;11.45;45.33
57885;BME280;43703;51.060;-0.086;2023-04-03T09:01:39;101555.85;;;11.42;45.45
57885;BME280;43703;51.060;-0.086;2023-04-03T09:04:09;101548.36;;;14.85;44.30
57885;BME280;43703;51.060;-0.086;2023-04-03T09:06:31;101550.64;;;12.12;43.90
57885;BME280;43703;51.060;-0.086;2023-04-03T09:09:02;101542.51;;;15.32;43.69
57885;BME280;43703;51.060;-0.086;2023-04-03T09:11:23;101544.78;;;13.60;39.31
57885;BME280;43703;51.060;-0.086;2023-04-03T09:13:49;101541.09;;;13.85;39.59
57885;BME280;43703;51.060;-0.086;2023-04-03T09:16:21;101544.68;;;11.97;41.16
57885;BME280;43703;51.060;-0.086;2023-04-03T09:18:42;101541.17;;;13.21;41.12
57885;BME280;43703;51.060;-0.086;2023-04-03T09:21:05;101542.48;;;12.05;39.95
57885;BME280;43703;51.060;-0.086;2023-04-03T09:23:32;101544.86;;;10.75;42.26
57885;BME280;43703;51.060;-0.086;2023-04-03T09:26:00;101548.10;;;8.55;46.21
57885;BME280;43703;51.060;-0.086;2023-04-03T09:28:19;101549.15;;;9.36;44.64
57885;BME280;43703;51.060;-0.086;2023-04-03T09:30:44;101544.23;;;10.13;43.09
57885;BME280;43703;51.060;-0.086;2023-04-03T09:33:09;101538.53;;;10.18;45.34
57885;BME280;43703;51.060;-0.086;2023-04-03T09:35:36;101535.70;;;9.19;45.72
57885;BME280;43703;51.060;-0.086;2023-04-03T09:38:01;101542.77;;;8.53;48.75
57885;BME280;43703;51.060;-0.086;2023-04-03T09:40:32;101533.67;;;10.55;42.87
57885;BME280;43703;51.060;-0.086;2023-04-03T09:42:52;101539.22;;;9.50;41.67
57885;BME280;43703;51.060;-0.086;2023-04-03T09:45:24;101535.40;;;10.30;45.57
57885;BME280;43703;51.060;-0.086;2023-04-03T09:47:41;101538.37;;;8.49;46.08
57885;BME280;43703;51.060;-0.086;2023-04-03T09:50:19;101538.17;;;8.59;48.78
57885;BME280;43703;51.060;-0.086;2023-04-03T09:52:32;101537.23;;;10.02;46.37
57885;BME280;43703;51.060;-0.086;2023-04-03T09:55:06;101535.01;;;8.62;46.30
57885;BME280;43703;51.060;-0.086;2023-04-03T09:57:29;101540.22;;;7.91;46.30
57885;BME280;43703;51.060;-0.086;2023-04-03T09:59:56;101532.61;;;8.58;47.75
57885;BME280;43703;51.060;-0.086;2023-04-03T10:02:22;101531.08;;;9.59;47.13
57885;BME280;43703;51.060;-0.086;2023-04-03T10:04:41;101535.12;;;9.87;46.47
57885;BME280;43703;51.060;-0.086;2023-04-03T10:09:32;101537.48;;;9.32;43.80
57885;BME280;43703;51.060;-0.086;2023-04-03T10:12:01;101532.57;;;8.94;42.67
57885;BME280;43703;51.060;-0.086;2023-04-03T10:14:27;101538.76;;;10.96;41.74
57885;BME280;43703;51.060;-0.086;2023-04-03T10:16:51;101538.76;;;9.06;44.07
57885;BME280;43703;51.060;-0.086;2023-04-03T10:19:25;101542.58;;;9.79;43.80
57885;BME280;43703;51.060;-0.086;2023-04-03T10:21:43;101545.57;;;9.02;44.09
57885;BME280;43703;51.060;-0.086;2023-04-03T10:24:10;101543.12;;;9.96;42.79
57885;BME280;43703;51.060;-0.086;2023-04-03T10:26:35;101541.92;;;10.80;43.57
57885;BME280;43703;51.060;-0.086;2023-04-03T10:28:59;101543.57;;;11.15;42.96
57885;BME280;43703;51.060;-0.086;2023-04-03T10:31:24;101546.70;;;8.00;46.01
57885;BME280;43703;51.060;-0.086;2023-04-03T10:33:52;101550.27;;;7.13;48.97
57885;BME280;43703;51.060;-0.086;2023-04-03T10:36:19;101546.11;;;8.28;46.38
57885;BME280;43703;51.060;-0.086;2023-04-03T10:38:43;101545.72;;;7.80;48.76
57885;BME280;43703;51.060;-0.086;2023-04-03T10:41:06;101543.94;;;8.87;45.97
57885;BME280;43703;51.060;-0.086;2023-04-03T10:43:33;101533.73;;;9.10;46.17
57885;BME280;43703;51.060;-0.086;2023-04-03T10:45:57;101537.91;;;7.93;45.57
57885;BME280;43703;51.060;-0.086;2023-04-03T10:48:24;101532.30;;;9.22;47.02
57885;BME280;43703;51.060;-0.086;2023-04-03T10:50:46;101530.39;;;9.36;44.88
57885;BME280;43703;51.060;-0.086;2023-04-03T10:53:14;101525.53;;;9.44;45.79
57885;BME280;43703;51.060;-0.086;2023-04-03T10:55:36;101526.27;;;9.47;43.52
57885;BME280;43703;51.060;-0.086;2023-04-03T10:57:58;101521.01;;;11.05;46.17
57885;BME280;43703;51.060;-0.086;2023-04-03T11:00:26;101512.82;;;13.99;40.29
57885;BME280;43703;51.060;-0.086;2023-04-03T11:02:52;101513.03;;;16.84;37.32
57885;BME280;43703;51.060;-0.086;2023-04-03T11:05:18;101508.78;;;17.21;34.27
57885;BME280;43703;51.060;-0.086;2023-04-03T11:07:39;101516.07;;;15.01;35.13
57885;BME280;43703;51.060;-0.086;2023-04-03T11:10:10;101511.94;;;13.68;35.02
57885;BME280;43703;51.060;-0.086;2023-04-03T11:12:36;101511.91;;;12.78;40.09
57885;BME280;43703;51.060;-0.086;2023-04-03T11:14:56;101510.95;;;12.41;39.11
57885;BME280;43703;51.060;-0.086;2023-04-03T11:17:27;101512.00;;;11.21;40.26
57885;BME280;43703;51.060;-0.086;2023-04-03T11:19:50;101517.64;;;10.97;41.02
57885;BME280;43703;51.060;-0.086;2023-04-03T11:22:16;101511.78;;;10.87;39.81
57885;BME280;43703;51.060;-0.086;2023-04-03T11:24:38;101514.18;;;11.25;38.37
57885;BME280;43703;51.060;-0.086;2023-04-03T11:27:02;101507.19;;;11.76;37.49
57885;BME280;43703;51.060;-0.086;2023-04-03T11:29:31;101498.73;;;13.38;36.40
57885;BME280;43703;51.060;-0.086;2023-04-03T11:32:08;101497.08;;;15.36;33.63
57885;BME280;43703;51.060;-0.086;2023-04-03T11:34:26;101504.93;;;12.97;36.30
57885;BME280;43703;51.060;-0.086;2023-04-03T11:36:45;101501.44;;;14.36;34.63
57885;BME280;43703;51.060;-0.086;2023-04-03T11:39:17;101492.58;;;13.11;34.65
57885;BME280;43703;51.060;-0.086;2023-04-03T11:41:34;101492.23;;;15.74;33.83
57885;BME280;43703;51.060;-0.086;2023-04-03T11:44:02;101488.95;;;15.48;30.28
57885;BME280;43703;51.060;-0.086;2023-04-03T11:48:52;101481.39;;;14.14;33.44
57885;BME280;43703;51.060;-0.086;2023-04-03T11:53:43;101479.87;;;14.26;32.05
57885;BME280;43703;51.060;-0.086;2023-04-03T11:58:34;101467.38;;;13.91;33.12
57885;BME280;43703;51.060;-0.086;2023-04-03T12:01:04;101471.69;;;14.31;31.90
57885;BME280;43703;51.060;-0.086;2023-04-03T12:03:30;101465.21;;;13.02;33.67
57885;BME280;43703;51.060;-0.086;2023-04-03T12:05:50;101466.89;;;12.41;37.04
57885;BME280;43703;51.060;-0.086;2023-04-03T12:08:24;101464.14;;;13.09;36.03
57885;BME280;43703;51.060;-0.086;2023-04-03T12:10:39;101455.08;;;13.11;34.80
57885;BME280;43703;51.060;-0.086;2023-04-03T12:13:13;101453.98;;;13.55;35.18
57885;BME280;43703;51.060;-0.086;2023-04-03T12:15:46;101460.32;;;16.15;31.25
57885;BME280;43703;51.060;-0.086;2023-04-03T12:17:56;101455.20;;;15.03;31.29
57885;BME280;43703;51.060;-0.086;2023-04-03T12:27:42;101437.12;;;12.56;34.10
57885;BME280;43703;51.060;-0.086;2023-04-03T12:30:14;101443.38;;;11.61;36.31
57885;BME280;43703;51.060;-0.086;2023-04-03T12:32:37;101441.91;;;11.22;36.97
57885;BME280;43703;51.060;-0.086;2023-04-03T12:35:06;101439.44;;;9.52;39.57
57885;BME280;43703;51.060;-0.086;2023-04-03T12:37:37;101436.18;;;10.70;36.75
57885;BME280;43703;51.060;-0.086;2023-04-03T12:39:53;101432.32;;;10.43;38.16
57885;BME280;43703;51.060;-0.086;2023-04-03T12:42:22;101435.88;;;11.22;38.86
57885;BME280;43703;51.060;-0.086;2023-04-03T12:44:43;101433.14;;;8.93;41.41
57885;BME280;43703;51.060;-0.086;2023-04-03T12:49:35;101429.56;;;11.79;40.80
57885;BME280;43703;51.060;-0.086;2023-04-03T12:51:53;101426.24;;;10.28;38.36
57885;BME280;43703;51.060;-0.086;2023-04-03T12:54:20;101424.64;;;11.38;37.19
57885;BME280;43703;51.060;-0.086;2023-04-03T12:56:42;101416.60;;;11.25;36.20
57885;BME280;43703;51.060;-0.086;2023-04-03T12:59:13;101411.10;;;11.02;38.22
57885;BME280;43703;51.060;-0.086;2023-04-03T13:01:32;101413.90;;;11.40;38.17
57885;BME280;43703;51.060;-0.086;2023-04-03T13:03:58;101410.52;;;11.34;35.60